createdAt,value
2022-09-02T00:00:00.913Z,21.71
2022-09-02T00:01:00.861Z,21.90
2022-09-02T00:02:01.036Z,21.83
2022-09-02T00:03:00.950Z,21.83
2022-09-02T00:04:00.714Z,21.82
2022-09-02T00:05:00.666Z,21.82
2022-09-02T00:06:00.618Z,21.90
2022-09-02T00:07:00.564Z,21.85
2022-09-02T00:08:00.517Z,21.85
2022-09-02T00:09:00.467Z,21.85
2022-09-02T00:10:00.428Z,21.79
2022-09-02T00:11:00.381Z,21.79
2022-09-02T00:12:00.321Z,21.85
2022-09-02T00:13:00.269Z,21.79
2022-09-02T00:14:00.222Z,21.88
2022-09-02T00:15:00.177Z,21.75
2022-09-02T00:16:00.127Z,21.75
2022-09-02T00:17:00.237Z,21.81
2022-09-02T00:18:00.028Z,21.85
2022-09-02T00:18:59.974Z,21.82
2022-09-02T00:19:59.926Z,21.78
2022-09-02T00:20:59.876Z,21.78
2022-09-02T00:21:59.832Z,21.78
2022-09-02T00:22:59.778Z,21.79
2022-09-02T00:23:59.730Z,21.74
2022-09-02T00:24:59.680Z,21.83
2022-09-02T00:25:59.633Z,21.75
2022-09-02T00:26:59.580Z,21.78
2022-09-02T00:27:59.535Z,21.78
2022-09-02T00:28:59.483Z,21.79
2022-09-02T00:29:59.437Z,21.78
2022-09-02T00:30:59.384Z,21.75
2022-09-02T00:31:59.405Z,21.81
2022-09-02T00:32:59.286Z,21.79
2022-09-02T00:33:59.333Z,21.82
2022-09-02T00:34:59.188Z,21.69
2022-09-02T00:35:59.140Z,21.74
2022-09-02T00:36:59.088Z,21.78
2022-09-02T00:37:59.049Z,21.78
2022-09-02T00:38:58.989Z,21.76
2022-09-02T00:39:58.942Z,21.74
2022-09-02T00:40:58.890Z,21.75
2022-09-02T00:41:58.844Z,21.71
2022-09-02T00:42:58.793Z,21.75
2022-09-02T00:43:58.745Z,21.75
2022-09-02T00:44:58.697Z,21.74
2022-09-02T00:45:58.694Z,21.71
2022-09-02T00:46:58.597Z,21.75
2022-09-02T00:47:58.547Z,21.78
2022-09-02T00:48:58.497Z,21.71
2022-09-02T00:49:58.451Z,21.71
2022-09-02T00:50:58.400Z,21.67
2022-09-02T00:51:58.355Z,21.69
2022-09-02T00:52:58.300Z,21.67
2022-09-02T00:53:58.253Z,21.75
2022-09-02T00:54:58.206Z,21.64
2022-09-02T00:55:58.154Z,21.69
2022-09-02T00:56:58.104Z,21.71
2022-09-02T00:57:58.057Z,21.74
2022-09-02T00:58:58.003Z,21.71
2022-09-02T00:59:57.957Z,21.66
2022-09-02T01:00:58.063Z,21.69
2022-09-02T01:01:57.968Z,21.69
2022-09-02T01:02:57.806Z,21.64
2022-09-02T01:03:57.758Z,21.67
2022-09-02T01:04:57.709Z,21.69
2022-09-02T01:05:57.661Z,21.67
2022-09-02T01:06:57.609Z,21.64
2022-09-02T01:07:57.561Z,21.69
2022-09-02T01:08:57.511Z,21.61
2022-09-02T01:09:57.466Z,21.66
2022-09-02T01:10:57.413Z,21.61
2022-09-02T01:11:57.366Z,21.59
2022-09-02T01:12:57.313Z,21.60
2022-09-02T01:13:57.267Z,21.59
2022-09-02T01:14:57.216Z,21.60
2022-09-02T01:15:57.202Z,21.63
2022-09-02T01:16:57.122Z,21.63
2022-09-02T01:17:57.071Z,21.63
2022-09-02T01:18:57.018Z,21.66
2022-09-02T01:19:56.969Z,21.53
2022-09-02T01:20:56.923Z,21.60
2022-09-02T01:21:56.871Z,21.57
2022-09-02T01:22:56.822Z,21.57
2022-09-02T01:23:56.772Z,21.56
2022-09-02T01:24:56.722Z,21.63
2022-09-02T01:25:56.674Z,21.57
2022-09-02T01:26:56.623Z,21.54
2022-09-02T01:27:56.575Z,21.57
2022-09-02T01:28:56.525Z,21.59
2022-09-02T01:29:56.477Z,21.60
2022-09-02T01:30:56.425Z,21.61
2022-09-02T01:31:56.441Z,21.57
2022-09-02T01:32:56.336Z,21.57
2022-09-02T01:33:56.286Z,21.56
2022-09-02T01:34:56.227Z,21.63
2022-09-02T01:35:56.180Z,21.56
2022-09-02T01:36:56.129Z,21.57
2022-09-02T01:37:56.160Z,21.60
2022-09-02T01:38:56.030Z,21.59
2022-09-02T01:39:55.983Z,21.56
2022-09-02T01:41:23.471Z,21.56
2022-09-02T01:41:55.882Z,21.56
2022-09-02T01:42:55.923Z,21.56
2022-09-02T01:43:55.784Z,21.57
2022-09-02T01:44:55.739Z,21.56
2022-09-02T01:45:55.686Z,21.54
2022-09-02T01:46:55.696Z,21.54
2022-09-02T01:47:55.587Z,21.56
2022-09-02T01:48:55.541Z,21.53
2022-09-02T01:49:55.488Z,21.50
2022-09-02T01:50:55.439Z,21.54
2022-09-02T01:51:55.390Z,21.61
2022-09-02T01:52:55.342Z,21.48
2022-09-02T01:53:55.290Z,21.46
2022-09-02T01:54:55.243Z,21.54
2022-09-02T01:55:55.191Z,21.54
2022-09-02T01:56:55.149Z,21.56
2022-09-02T01:57:55.093Z,21.53
2022-09-02T01:58:55.045Z,21.51
2022-09-02T01:59:54.999Z,21.53
2022-09-02T02:00:54.992Z,21.50
2022-09-02T02:01:54.925Z,21.48
2022-09-02T02:02:54.848Z,21.50
2022-09-02T02:03:54.796Z,21.53
2022-09-02T02:04:54.747Z,21.56
2022-09-02T02:05:54.698Z,21.54
2022-09-02T02:06:54.649Z,21.51
2022-09-02T02:07:54.601Z,21.44
2022-09-02T02:08:54.550Z,21.42
2022-09-02T02:09:54.505Z,21.46
2022-09-02T02:10:54.457Z,21.41
2022-09-02T02:11:54.401Z,21.41
2022-09-02T02:12:54.356Z,21.46
2022-09-02T02:13:54.303Z,21.42
2022-09-02T02:14:55.071Z,21.42
2022-09-02T02:15:54.267Z,21.51
2022-09-02T02:16:54.154Z,21.48
2022-09-02T02:17:54.106Z,21.42
2022-09-02T02:18:54.056Z,21.38
2022-09-02T02:19:54.006Z,21.50
2022-09-02T02:20:53.958Z,21.44
2022-09-02T02:21:53.906Z,21.39
2022-09-02T02:22:53.858Z,21.38
2022-09-02T02:23:53.807Z,21.48
2022-09-02T02:24:53.759Z,21.42
2022-09-02T02:25:53.711Z,21.41
2022-09-02T02:26:53.662Z,21.41
2022-09-02T02:27:53.608Z,21.41
2022-09-02T02:28:53.564Z,21.46
2022-09-02T02:29:53.823Z,21.38
2022-09-02T02:30:53.463Z,21.32
2022-09-02T02:31:53.411Z,21.46
2022-09-02T02:32:53.366Z,21.42
2022-09-02T02:33:53.314Z,21.35
2022-09-02T02:34:53.264Z,21.44
2022-09-02T02:35:53.213Z,21.39
2022-09-02T02:36:53.167Z,21.39
2022-09-02T02:37:53.114Z,21.46
2022-09-02T02:38:53.066Z,21.41
2022-09-02T02:39:53.015Z,21.35
2022-09-02T02:40:53.032Z,21.39
2022-09-02T02:41:52.917Z,21.38
2022-09-02T02:42:52.868Z,21.45
2022-09-02T02:43:52.820Z,21.39
2022-09-02T02:44:52.777Z,21.39
2022-09-02T02:45:52.719Z,21.29
2022-09-02T02:46:52.755Z,21.41
2022-09-02T02:47:52.621Z,21.39
2022-09-02T02:48:52.574Z,21.39
2022-09-02T02:49:52.520Z,21.27
2022-09-02T02:50:52.473Z,21.38
2022-09-02T02:51:52.421Z,21.41
2022-09-02T02:52:52.374Z,21.27
2022-09-02T02:53:55.684Z,21.38
2022-09-02T02:54:52.275Z,21.41
2022-09-02T02:55:52.224Z,21.41
2022-09-02T02:56:52.175Z,21.38
2022-09-02T02:57:52.125Z,21.34
2022-09-02T02:58:52.076Z,21.32
2022-09-02T02:59:52.027Z,21.29
2022-09-02T03:00:51.977Z,21.35
2022-09-02T03:01:52.082Z,21.30
2022-09-02T03:02:52.038Z,21.36
2022-09-02T03:03:51.834Z,21.27
2022-09-02T03:04:51.791Z,21.32
2022-09-02T03:05:51.728Z,21.32
2022-09-02T03:06:51.679Z,21.35
2022-09-02T03:07:51.629Z,21.32
2022-09-02T03:08:51.580Z,21.29
2022-09-02T03:09:51.530Z,21.29
2022-09-02T03:10:51.483Z,21.26
2022-09-02T03:11:51.431Z,21.34
2022-09-02T03:12:51.383Z,21.23
2022-09-02T03:13:51.337Z,21.27
2022-09-02T03:14:51.284Z,21.34
2022-09-02T03:15:51.319Z,21.20
2022-09-02T03:16:51.184Z,21.26
2022-09-02T03:17:51.134Z,21.21
2022-09-02T03:18:51.085Z,21.19
2022-09-02T03:19:51.035Z,21.26
2022-09-02T03:20:50.988Z,21.16
2022-09-02T03:21:50.935Z,21.20
2022-09-02T03:22:50.903Z,21.19
2022-09-02T03:23:50.837Z,21.20
2022-09-02T03:24:50.789Z,21.21
2022-09-02T03:25:50.740Z,21.26
2022-09-02T03:26:50.715Z,21.20
2022-09-02T03:27:50.637Z,21.24
2022-09-02T03:28:50.589Z,21.16
2022-09-02T03:29:50.539Z,21.26
2022-09-02T03:30:50.527Z,21.21
2022-09-02T03:31:50.440Z,21.21
2022-09-02T03:32:50.391Z,21.16
2022-09-02T03:33:50.340Z,21.21
2022-09-02T03:34:50.293Z,21.20
2022-09-02T03:35:50.239Z,21.21
2022-09-02T03:36:50.193Z,21.20
2022-09-02T03:37:50.142Z,21.17
2022-09-02T03:38:50.093Z,21.17
2022-09-02T03:39:50.045Z,21.20
2022-09-02T03:40:50.063Z,21.19
2022-09-02T03:41:49.943Z,21.16
2022-09-02T03:42:49.896Z,21.16
2022-09-02T03:43:49.844Z,21.11
2022-09-02T03:44:49.796Z,21.14
2022-09-02T03:45:49.785Z,21.17
2022-09-02T03:46:49.695Z,21.13
2022-09-02T03:47:49.647Z,21.16
2022-09-02T03:48:49.597Z,21.11
2022-09-02T03:49:49.546Z,21.08
2022-09-02T03:50:49.498Z,21.19
2022-09-02T03:51:49.448Z,21.11
2022-09-02T03:52:49.505Z,21.11
2022-09-02T03:53:49.349Z,21.08
2022-09-02T03:54:49.297Z,21.11
2022-09-02T03:55:49.249Z,21.11
2022-09-02T03:56:49.199Z,21.08
2022-09-02T03:57:49.152Z,21.04
2022-09-02T03:58:49.099Z,21.08
2022-09-02T03:59:49.051Z,21.05
2022-09-02T04:00:49.002Z,21.17
2022-09-02T04:01:48.996Z,21.11
2022-09-02T04:02:50.224Z,21.06
2022-09-02T04:03:48.854Z,21.09
2022-09-02T04:04:48.801Z,21.06
2022-09-02T04:05:48.754Z,21.01
2022-09-02T04:06:48.702Z,21.06
2022-09-02T04:07:48.655Z,21.06
2022-09-02T04:08:48.603Z,21.04
2022-09-02T04:09:48.558Z,21.05
2022-09-02T04:10:48.503Z,21.09
2022-09-02T04:11:48.455Z,21.05
2022-09-02T04:12:48.404Z,21.06
2022-09-02T04:13:48.357Z,21.08
2022-09-02T04:14:48.306Z,21.08
2022-09-02T04:15:48.465Z,21.13
2022-09-02T04:16:48.208Z,21.06
2022-09-02T04:17:48.157Z,21.08
2022-09-02T04:18:48.104Z,21.11
2022-09-02T04:19:48.058Z,21.14
2022-09-02T04:20:48.028Z,21.02
2022-09-02T04:21:47.958Z,21.02
2022-09-02T04:22:47.909Z,21.06
2022-09-02T04:23:47.860Z,21.11
2022-09-02T04:24:47.807Z,21.13
2022-09-02T04:25:47.760Z,21.14
2022-09-02T04:26:47.707Z,21.14
2022-09-02T04:27:47.662Z,21.02
2022-09-02T04:28:47.609Z,21.09
2022-09-02T04:29:47.566Z,21.09
2022-09-02T04:30:47.561Z,20.96
2022-09-02T04:31:47.460Z,20.98
2022-09-02T04:32:47.409Z,21.05
2022-09-02T04:33:47.365Z,21.01
2022-09-02T04:34:47.310Z,21.09
2022-09-02T04:35:47.261Z,21.02
2022-09-02T04:36:47.210Z,21.01
2022-09-02T04:37:47.164Z,20.98
2022-09-02T04:38:47.822Z,21.01
2022-09-02T04:39:47.064Z,20.98
2022-09-02T04:40:47.075Z,20.98
2022-09-02T04:41:46.963Z,21.02
2022-09-02T04:42:46.911Z,21.01
2022-09-02T04:43:46.865Z,20.98
2022-09-02T04:44:46.811Z,20.99
2022-09-02T04:45:46.904Z,20.95
2022-09-02T04:46:46.761Z,20.96
2022-09-02T04:47:46.663Z,20.91
2022-09-02T04:48:46.615Z,20.98
2022-09-02T04:49:46.572Z,20.98
2022-09-02T04:50:46.512Z,20.87
2022-09-02T04:51:46.464Z,20.90
2022-09-02T04:52:46.414Z,20.93
2022-09-02T04:53:46.365Z,21.01
2022-09-02T04:54:46.313Z,20.90
2022-09-02T04:55:46.265Z,20.91
2022-09-02T04:56:46.214Z,20.93
2022-09-02T04:57:46.166Z,20.99
2022-09-02T04:58:46.114Z,20.93
2022-09-02T04:59:46.069Z,20.95
2022-09-02T05:00:46.016Z,20.90
2022-09-02T05:01:46.049Z,20.86
2022-09-02T05:02:46.007Z,20.86
2022-09-02T05:03:45.870Z,20.91
2022-09-02T05:04:45.816Z,20.86
2022-09-02T05:05:45.767Z,20.98
2022-09-02T05:06:45.716Z,21.02
2022-09-02T05:07:45.667Z,20.89
2022-09-02T05:08:45.624Z,20.84
2022-09-02T05:09:45.568Z,20.99
2022-09-02T05:10:45.516Z,20.91
2022-09-02T05:11:45.470Z,20.95
2022-09-02T05:12:45.419Z,20.95
2022-09-02T05:13:45.370Z,20.95
2022-09-02T05:14:45.319Z,20.91
2022-09-02T05:15:45.300Z,20.87
2022-09-02T05:16:45.219Z,20.93
2022-09-02T05:17:45.171Z,20.95
2022-09-02T05:18:45.117Z,20.81
2022-09-02T05:19:45.069Z,20.84
2022-09-02T05:20:45.021Z,20.84
2022-09-02T05:21:44.970Z,20.96
2022-09-02T05:22:44.920Z,20.84
2022-09-02T05:23:44.870Z,20.81
2022-09-02T05:24:44.819Z,20.84
2022-09-02T05:25:44.772Z,20.86
2022-09-02T05:26:44.738Z,20.83
2022-09-02T05:27:44.671Z,20.83
2022-09-02T05:28:44.621Z,20.83
2022-09-02T05:29:45.557Z,20.87
2022-09-02T05:30:44.545Z,20.86
2022-09-02T05:31:44.471Z,20.84
2022-09-02T05:32:44.421Z,20.81
2022-09-02T05:33:44.375Z,20.86
2022-09-02T05:34:44.322Z,20.86
2022-09-02T05:35:45.891Z,20.86
2022-09-02T05:36:44.221Z,20.83
2022-09-02T05:37:44.173Z,20.84
2022-09-02T05:38:44.123Z,20.84
2022-09-02T05:39:44.072Z,20.84
2022-09-02T05:40:44.079Z,20.90
2022-09-02T05:41:43.973Z,20.90
2022-09-02T05:42:43.925Z,20.87
2022-09-02T05:43:43.873Z,20.87
2022-09-02T05:44:43.827Z,20.93
2022-09-02T05:45:43.890Z,20.93
2022-09-02T05:46:48.573Z,20.86
2022-09-02T05:47:43.674Z,20.83
2022-09-02T05:48:43.622Z,20.86
2022-09-02T05:49:43.574Z,20.86
2022-09-02T05:50:43.521Z,20.87
2022-09-02T05:51:43.474Z,20.81
2022-09-02T05:52:43.425Z,20.86
2022-09-02T05:53:43.374Z,20.84
2022-09-02T05:54:43.322Z,20.87
2022-09-02T05:55:43.275Z,20.89
2022-09-02T05:56:44.940Z,20.87
2022-09-02T05:57:43.176Z,20.87
2022-09-02T05:58:43.124Z,20.84
2022-09-02T05:59:43.078Z,20.83
2022-09-02T06:00:43.027Z,20.86
2022-09-02T06:01:43.009Z,20.91
2022-09-02T06:02:43.005Z,20.81
2022-09-02T06:03:42.876Z,20.87
2022-09-02T06:04:42.826Z,20.89
2022-09-02T06:05:42.777Z,20.95
2022-09-02T06:06:42.723Z,20.81
2022-09-02T06:07:42.678Z,20.91
2022-09-02T06:08:42.625Z,20.95
2022-09-02T06:09:42.577Z,20.86
2022-09-02T06:10:42.524Z,20.89
2022-09-02T06:11:42.476Z,20.80
2022-09-02T06:12:42.816Z,20.89
2022-09-02T06:13:42.378Z,20.83
2022-09-02T06:14:42.327Z,20.90
2022-09-02T06:15:42.324Z,20.83
2022-09-02T06:16:42.232Z,20.87
2022-09-02T06:17:42.180Z,20.80
2022-09-02T06:18:42.128Z,20.87
2022-09-02T06:19:42.078Z,20.89
2022-09-02T06:20:42.026Z,20.95
2022-09-02T06:21:41.978Z,20.86
2022-09-02T06:22:41.926Z,20.89
2022-09-02T06:23:41.877Z,20.79
2022-09-02T06:24:41.826Z,20.83
2022-09-02T06:25:41.777Z,20.83
2022-09-02T06:26:41.725Z,20.89
2022-09-02T06:27:41.678Z,20.83
2022-09-02T06:28:41.626Z,20.89
2022-09-02T06:29:41.578Z,20.86
2022-09-02T06:30:41.572Z,20.86
2022-09-02T06:31:41.480Z,20.89
2022-09-02T06:32:41.429Z,20.80
2022-09-02T06:33:41.381Z,20.84
2022-09-02T06:34:41.333Z,20.80
2022-09-02T06:35:41.279Z,20.84
2022-09-02T06:36:41.227Z,20.79
2022-09-02T06:37:41.181Z,20.87
2022-09-02T06:38:45.625Z,20.89
2022-09-02T06:39:41.078Z,20.89
2022-09-02T06:40:41.098Z,20.89
2022-09-02T06:41:40.981Z,20.87
2022-09-02T06:42:40.928Z,20.83
2022-09-02T06:43:42.377Z,20.95
2022-09-02T06:44:40.829Z,20.91
2022-09-02T06:45:40.781Z,20.87
2022-09-02T06:46:40.814Z,20.99
2022-09-02T06:47:40.680Z,20.89
2022-09-02T06:48:40.628Z,20.90
2022-09-02T06:49:40.579Z,20.89
2022-09-02T06:50:40.530Z,20.84
2022-09-02T06:51:40.480Z,20.89
2022-09-02T06:52:40.430Z,20.84
2022-09-02T06:53:40.380Z,20.96
2022-09-02T06:54:40.330Z,20.79
2022-09-02T06:55:40.281Z,20.84
2022-09-02T06:56:40.229Z,20.90
2022-09-02T06:57:40.180Z,20.86
2022-09-02T06:58:40.128Z,20.84
2022-09-02T06:59:40.083Z,20.86
2022-09-02T07:00:40.028Z,20.84
2022-09-02T07:01:40.198Z,20.89
2022-09-02T07:02:39.930Z,20.87
2022-09-02T07:03:39.890Z,20.84
2022-09-02T07:04:39.829Z,20.89
2022-09-02T07:05:39.781Z,20.84
2022-09-02T07:06:39.728Z,20.83
2022-09-02T07:07:39.681Z,20.89
2022-09-02T07:08:39.631Z,20.89
2022-09-02T07:09:39.580Z,20.89
2022-09-02T07:10:39.529Z,20.84
2022-09-02T07:11:39.486Z,20.91
2022-09-02T07:12:39.428Z,20.90
2022-09-02T07:13:39.381Z,20.84
2022-09-02T07:14:39.332Z,20.81
2022-09-02T07:15:39.281Z,20.84
2022-09-02T07:16:39.282Z,20.83
2022-09-02T07:17:39.183Z,20.87
2022-09-02T07:18:39.137Z,20.91
2022-09-02T07:19:39.080Z,20.84
2022-09-02T07:20:39.035Z,20.84
2022-09-02T07:21:38.983Z,20.96
2022-09-02T07:22:39.018Z,20.86
2022-09-02T07:23:40.663Z,20.87
2022-09-02T07:24:38.831Z,20.83
2022-09-02T07:25:38.782Z,20.86
2022-09-02T07:26:38.732Z,20.87
2022-09-02T07:27:38.682Z,20.91
2022-09-02T07:28:38.631Z,20.84
2022-09-02T07:29:38.581Z,20.83
2022-09-02T07:30:38.580Z,21.01
2022-09-02T07:31:38.490Z,20.93
2022-09-02T07:32:38.433Z,20.95
2022-09-02T07:33:38.386Z,21.02
2022-09-02T07:34:38.330Z,20.86
2022-09-02T07:35:38.283Z,20.93
2022-09-02T07:36:38.232Z,20.93
2022-09-02T07:37:38.230Z,20.98
2022-09-02T07:38:38.129Z,20.98
2022-09-02T07:39:38.086Z,21.01
2022-09-02T07:40:38.091Z,20.93
2022-09-02T07:41:37.983Z,20.93
2022-09-02T07:42:37.959Z,20.89
2022-09-02T07:43:37.885Z,20.93
2022-09-02T07:44:37.835Z,20.98
2022-09-02T07:45:37.842Z,20.96
2022-09-02T07:46:37.733Z,20.87
2022-09-02T07:47:37.833Z,20.93
2022-09-02T07:48:37.631Z,20.89
2022-09-02T07:50:37.603Z,21.04
2022-09-02T07:51:37.490Z,20.96
2022-09-02T07:52:37.433Z,20.89
2022-09-02T07:53:37.393Z,21.01
2022-09-02T07:54:37.333Z,20.95
2022-09-02T07:55:37.283Z,20.90
2022-09-02T07:57:05.076Z,21.02
2022-09-02T07:57:37.183Z,20.86
2022-09-02T07:58:37.133Z,20.93
2022-09-02T07:59:37.083Z,20.84
2022-09-02T08:00:37.034Z,20.99
2022-09-02T08:01:37.065Z,20.87
2022-09-02T08:02:36.981Z,20.86
2022-09-02T08:03:36.885Z,20.87
2022-09-02T08:04:36.851Z,20.89
2022-09-02T08:05:36.784Z,20.99
2022-09-02T08:06:36.734Z,20.99
2022-09-02T08:07:36.684Z,20.93
2022-09-02T08:08:36.633Z,20.98
2022-09-02T08:09:36.585Z,20.95
2022-09-02T08:10:36.535Z,20.87
2022-09-02T08:11:36.487Z,20.99
2022-09-02T08:12:36.433Z,20.93
2022-09-02T08:13:36.388Z,20.98
2022-09-02T08:14:36.334Z,20.98
2022-09-02T08:15:36.285Z,21.01
2022-09-02T08:16:36.340Z,20.99
2022-09-02T08:17:36.186Z,21.02
2022-09-02T08:18:36.137Z,20.98
2022-09-02T08:19:36.085Z,20.99
2022-09-02T08:20:36.038Z,21.01
2022-09-02T08:21:35.986Z,21.04
2022-09-02T08:22:35.943Z,21.02
2022-09-02T08:23:37.482Z,21.08
2022-09-02T08:24:35.841Z,21.06
2022-09-02T08:25:35.786Z,21.11
2022-09-02T08:26:35.760Z,21.06
2022-09-02T08:27:35.688Z,21.09
2022-09-02T08:28:35.637Z,21.04
2022-09-02T08:29:35.590Z,21.02
2022-09-02T08:30:35.536Z,21.09
2022-09-02T08:31:35.546Z,21.02
2022-09-02T08:32:35.436Z,21.11
2022-09-02T08:33:35.388Z,21.11
2022-09-02T08:34:35.335Z,21.01
2022-09-02T08:35:35.286Z,21.06
2022-09-02T08:36:35.236Z,21.14
2022-09-02T08:37:35.187Z,21.05
2022-09-02T08:38:35.135Z,21.02
2022-09-02T08:39:35.090Z,21.06
2022-09-02T08:40:35.075Z,21.08
2022-09-02T08:41:34.989Z,21.11
2022-09-02T08:42:34.937Z,21.09
2022-09-02T08:43:34.890Z,21.05
2022-09-02T08:44:34.913Z,21.05
2022-09-02T08:45:34.840Z,21.08
2022-09-02T08:46:34.737Z,21.04
2022-09-02T08:47:34.689Z,21.06
2022-09-02T08:48:34.640Z,21.05
2022-09-02T08:49:34.593Z,21.04
2022-09-02T08:50:34.542Z,21.04
2022-09-02T08:51:37.278Z,21.05
2022-09-02T08:52:34.438Z,21.06
2022-09-02T08:53:34.391Z,21.05
2022-09-02T08:54:34.338Z,21.05
2022-09-02T08:55:34.291Z,21.06
2022-09-02T08:56:36.095Z,21.06
2022-09-02T08:57:34.192Z,21.11
2022-09-02T08:58:34.138Z,21.13
2022-09-02T08:59:34.135Z,21.16
2022-09-02T09:00:34.039Z,21.14
2022-09-02T09:01:34.086Z,21.11
2022-09-02T09:02:34.007Z,21.11
2022-09-02T09:03:33.896Z,21.14
2022-09-02T09:04:33.840Z,21.11
2022-09-02T09:05:33.793Z,21.09
2022-09-02T09:06:33.742Z,21.14
2022-09-02T09:07:33.728Z,21.17
2022-09-02T09:08:33.643Z,21.11
2022-09-02T09:09:33.592Z,21.13
2022-09-02T09:10:33.540Z,21.13
2022-09-02T09:11:33.494Z,21.19
2022-09-02T09:12:33.457Z,21.16
2022-09-02T09:13:33.393Z,21.16
2022-09-02T09:14:33.342Z,21.20
2022-09-02T09:15:33.299Z,21.16
2022-09-02T09:16:33.279Z,21.17
2022-09-02T09:17:33.194Z,21.20
2022-09-02T09:18:33.144Z,21.23
2022-09-02T09:19:33.095Z,21.24
2022-09-02T09:20:33.042Z,21.17
2022-09-02T09:21:33.000Z,21.17
2022-09-02T09:22:32.944Z,21.20
2022-09-02T09:23:34.216Z,21.21
2022-09-02T09:24:32.843Z,21.20
2022-09-02T09:25:32.796Z,21.21
2022-09-02T09:26:32.745Z,21.20
2022-09-02T09:27:47.711Z,21.20
2022-09-02T09:28:32.646Z,21.17
2022-09-02T09:29:32.603Z,21.20
2022-09-02T09:30:32.543Z,21.26
2022-09-02T09:31:32.564Z,21.24
2022-09-02T09:32:32.446Z,21.23
2022-09-02T09:33:32.396Z,21.27
2022-09-02T09:34:32.346Z,21.17
2022-09-02T09:35:32.296Z,21.29
2022-09-02T09:36:32.247Z,21.17
2022-09-02T09:37:35.902Z,21.17
2022-09-02T09:38:32.146Z,21.17
2022-09-02T09:39:32.098Z,21.23
2022-09-02T09:40:32.076Z,21.17
2022-09-02T09:41:31.999Z,21.20
2022-09-02T09:42:31.946Z,21.20
2022-09-02T09:43:31.899Z,21.20
2022-09-02T09:44:31.850Z,21.24
2022-09-02T09:45:31.822Z,21.20
2022-09-02T09:46:31.747Z,21.23
2022-09-02T09:47:31.699Z,21.20
2022-09-02T09:48:31.659Z,21.17
2022-09-02T09:49:31.600Z,21.26
2022-09-02T09:50:31.549Z,21.30
2022-09-02T09:51:31.501Z,21.26
2022-09-02T09:52:31.451Z,21.26
2022-09-02T09:53:31.401Z,21.34
2022-09-02T09:54:31.349Z,21.26
2022-09-02T09:55:31.302Z,21.35
2022-09-02T09:56:31.250Z,21.29
2022-09-02T09:57:35.520Z,21.35
2022-09-02T09:58:31.152Z,21.27
2022-09-02T09:59:31.102Z,21.30
2022-09-02T10:00:31.054Z,21.34
2022-09-02T10:01:31.172Z,21.34
2022-09-02T10:02:34.380Z,21.32
2022-09-02T10:03:33.188Z,21.32
2022-09-02T10:04:44.283Z,21.38
2022-09-02T10:05:30.808Z,21.35
2022-09-02T10:06:30.752Z,21.35
2022-09-02T10:07:30.707Z,21.32
2022-09-02T10:08:30.653Z,21.35
2022-09-02T10:09:30.608Z,21.27
2022-09-02T10:10:30.553Z,21.38
2022-09-02T10:11:30.508Z,21.38
2022-09-02T10:12:30.454Z,21.41
2022-09-02T10:13:30.406Z,21.41
2022-09-02T10:14:30.357Z,21.42
2022-09-02T10:15:30.307Z,21.39
2022-09-02T10:16:30.342Z,21.36
2022-09-02T10:17:30.210Z,21.42
2022-09-02T10:18:30.155Z,21.44
2022-09-02T10:19:30.108Z,21.44
2022-09-02T10:20:30.057Z,21.45
2022-09-02T10:21:30.010Z,21.39
2022-09-02T10:22:37.959Z,21.41
2022-09-02T10:23:29.908Z,21.46
2022-09-02T10:24:36.611Z,21.44
2022-09-02T10:25:29.812Z,21.46
2022-09-02T10:26:29.764Z,21.38
2022-09-02T10:27:29.710Z,21.38
2022-09-02T10:28:29.659Z,21.42
2022-09-02T10:29:29.611Z,21.50
2022-09-02T10:30:29.559Z,21.45
2022-09-02T10:31:29.549Z,21.44
2022-09-02T10:32:29.459Z,21.39
2022-09-02T10:33:29.415Z,21.42
2022-09-02T10:34:29.361Z,21.45
2022-09-02T10:35:29.333Z,21.41
2022-09-02T10:36:29.261Z,21.41
2022-09-02T10:37:29.214Z,21.46
2022-09-02T10:38:29.163Z,21.39
2022-09-02T10:39:29.115Z,21.51
2022-09-02T10:40:29.111Z,21.46
2022-09-02T10:41:29.018Z,21.50
2022-09-02T10:42:28.966Z,21.51
2022-09-02T10:43:31.620Z,21.51
2022-09-02T10:44:28.862Z,21.54
2022-09-02T10:45:28.815Z,21.50
2022-09-02T10:46:28.792Z,21.45
2022-09-02T10:47:29.379Z,21.51
2022-09-02T10:48:28.665Z,21.56
2022-09-02T10:49:28.619Z,21.48
2022-09-02T10:50:28.566Z,21.51
2022-09-02T10:51:28.520Z,21.61
2022-09-02T10:52:28.469Z,21.56
2022-09-02T10:53:28.419Z,21.59
2022-09-02T10:54:28.367Z,21.56
2022-09-02T10:55:28.318Z,21.56
2022-09-02T10:56:28.275Z,21.54
2022-09-02T10:57:28.223Z,21.57
2022-09-02T10:58:28.171Z,21.53
2022-09-02T10:59:28.125Z,21.56
2022-09-02T11:00:28.135Z,21.61
2022-09-02T11:01:28.021Z,21.57
2022-09-02T11:02:27.972Z,21.60
2022-09-02T11:03:27.961Z,21.61
2022-09-02T11:04:27.870Z,21.63
2022-09-02T11:05:27.823Z,21.61
2022-09-02T11:06:35.385Z,21.59
2022-09-02T11:07:27.725Z,21.63
2022-09-02T11:08:31.505Z,21.63
2022-09-02T11:09:27.642Z,21.63
2022-09-02T11:10:27.577Z,21.71
2022-09-02T11:11:27.525Z,21.66
2022-09-02T11:12:27.474Z,21.69
2022-09-02T11:13:27.426Z,21.67
2022-09-02T11:14:27.374Z,21.69
2022-09-02T11:15:27.326Z,21.71
2022-09-02T11:16:27.380Z,21.64
2022-09-02T11:17:27.229Z,21.64
2022-09-02T11:18:27.178Z,21.71
2022-09-02T11:19:27.131Z,21.72
2022-09-02T11:20:27.079Z,21.74
2022-09-02T11:21:31.977Z,21.79
2022-09-02T11:22:27.600Z,21.75
2022-09-02T11:23:26.933Z,21.78
2022-09-02T11:24:26.880Z,21.74
2022-09-02T11:25:26.832Z,21.75
2022-09-02T11:26:26.779Z,21.78
2022-09-02T11:27:41.610Z,21.74
2022-09-02T11:28:26.692Z,21.76
2022-09-02T11:29:26.635Z,21.83
2022-09-02T11:30:26.581Z,21.75
2022-09-02T11:31:26.534Z,21.76
2022-09-02T11:32:26.485Z,21.76
2022-09-02T11:33:26.437Z,21.78
2022-09-02T11:34:26.383Z,21.78
2022-09-02T11:35:26.335Z,21.90
2022-09-02T11:36:26.285Z,21.83
2022-09-02T11:37:26.237Z,21.82
2022-09-02T11:38:26.185Z,21.82
2022-09-02T11:39:36.592Z,21.76
2022-09-02T11:40:34.172Z,21.85
2022-09-02T11:41:41.502Z,21.88
2022-09-02T11:42:25.986Z,21.90
2022-09-02T11:43:25.939Z,21.94
2022-09-02T11:44:28.131Z,21.95
2022-09-02T11:45:25.888Z,21.95
2022-09-02T11:46:25.862Z,21.88
2022-09-02T11:47:25.741Z,21.88
2022-09-02T11:48:25.692Z,21.91
2022-09-02T11:49:25.906Z,21.92
2022-09-02T11:50:25.590Z,21.91
2022-09-02T11:51:25.546Z,21.94
2022-09-02T11:52:25.510Z,22.04
2022-09-02T11:53:25.625Z,21.97
2022-09-02T11:54:25.393Z,21.97
2022-09-02T11:55:25.346Z,22.01
2022-09-02T11:56:25.296Z,22.01
2022-09-02T11:57:25.247Z,21.95
2022-09-02T11:58:25.197Z,21.98
2022-09-02T11:59:25.148Z,21.99
2022-09-02T12:00:25.099Z,22.04
2022-09-02T12:01:25.573Z,21.98
2022-09-02T12:02:24.997Z,21.99
2022-09-02T12:03:58.718Z,22.12
2022-09-02T12:04:59.114Z,22.12
2022-09-02T12:05:24.962Z,22.13
2022-09-02T12:06:24.947Z,22.07
2022-09-02T12:07:26.914Z,22.06
2022-09-02T12:08:24.705Z,22.07
2022-09-02T12:09:24.655Z,22.07
2022-09-02T12:10:24.603Z,22.06
2022-09-02T12:11:24.554Z,22.02
2022-09-02T12:12:24.504Z,22.06
2022-09-02T12:13:24.555Z,22.10
2022-09-02T12:14:24.405Z,22.04
2022-09-02T12:15:24.357Z,22.19
2022-09-02T12:16:24.403Z,22.16
2022-09-02T12:17:24.260Z,22.12
2022-09-02T12:18:24.210Z,22.25
2022-09-02T12:19:24.163Z,22.22
2022-09-02T12:20:24.110Z,22.23
2022-09-02T12:21:24.076Z,22.22
2022-09-02T12:22:24.012Z,22.25
2022-09-02T12:23:23.960Z,22.20
2022-09-02T12:24:23.916Z,22.20
2022-09-02T12:25:23.862Z,22.22
2022-09-02T12:26:23.815Z,22.20
2022-09-02T12:27:23.765Z,22.23
2022-09-02T12:28:25.214Z,22.14
2022-09-02T12:29:23.666Z,22.20
2022-09-02T12:30:23.616Z,22.19
2022-09-02T12:31:23.649Z,22.16
2022-09-02T12:32:23.519Z,22.31
2022-09-02T12:33:23.470Z,22.27
2022-09-02T12:34:23.423Z,22.28
2022-09-02T12:35:23.417Z,22.22
2022-09-02T12:36:23.321Z,22.27
2022-09-02T12:37:23.271Z,22.32
2022-09-02T12:38:23.295Z,22.23
2022-09-02T12:39:23.230Z,22.27
2022-09-02T12:40:23.215Z,22.29
2022-09-02T12:41:23.072Z,22.25
2022-09-02T12:42:23.025Z,22.31
2022-09-02T12:43:23.057Z,22.22
2022-09-02T12:44:22.927Z,22.29
2022-09-02T12:45:28.181Z,22.28
2022-09-02T12:46:22.878Z,22.31
2022-09-02T12:47:22.778Z,22.31
2022-09-02T12:48:30.373Z,22.34
2022-09-02T12:49:22.680Z,22.38
2022-09-02T12:50:22.631Z,22.35
2022-09-02T12:51:22.582Z,22.31
2022-09-02T12:52:22.534Z,22.38